createdAt,value
2022-10-15T00:01:41.079Z,8.87
2022-10-15T00:04:25.589Z,8.73
2022-10-15T00:07:08.676Z,9.47
2022-10-15T00:09:53.354Z,8.97
2022-10-15T00:12:36.422Z,9.50
2022-10-15T00:15:19.701Z,10.30
2022-10-15T00:18:02.745Z,9.80
2022-10-15T00:20:47.242Z,10.20
2022-10-15T00:23:30.356Z,9.77
2022-10-15T00:26:15.557Z,9.03
2022-10-15T00:29:01.162Z,9.53
2022-10-15T00:31:44.213Z,9.70
2022-10-15T00:34:27.657Z,9.47
2022-10-15T00:37:12.038Z,10.60
2022-10-15T00:39:55.139Z,10.50
2022-10-15T00:42:38.175Z,10.70
2022-10-15T00:45:21.317Z,10.83
2022-10-15T00:48:04.520Z,10.70
2022-10-15T00:50:47.779Z,10.80
2022-10-15T00:53:32.413Z,11.17
2022-10-15T00:56:18.547Z,11.80
2022-10-15T00:59:02.271Z,11.63
2022-10-15T01:01:46.710Z,10.97
2022-10-15T01:04:31.800Z,10.77
2022-10-15T01:10:07.050Z,11.53
2022-10-15T01:13:04.343Z,12.37
2022-10-15T01:15:55.532Z,11.57
2022-10-15T01:18:44.362Z,12.40
2022-10-15T01:21:34.943Z,11.80
2022-10-15T01:24:46.910Z,9.87
2022-10-15T01:27:36.233Z,10.47
2022-10-15T01:30:32.752Z,10.43
2022-10-15T01:33:32.545Z,11.10
2022-10-15T01:36:20.056Z,11.33
2022-10-15T01:39:10.825Z,10.93
2022-10-15T01:41:57.502Z,11.60
2022-10-15T01:44:44.600Z,10.60
2022-10-15T01:47:34.010Z,11.43
2022-10-15T01:50:18.636Z,11.87
2022-10-15T01:53:03.509Z,10.20
2022-10-15T01:55:48.680Z,11.33
2022-10-15T01:58:33.209Z,10.27
2022-10-15T02:01:17.130Z,9.93
2022-10-15T02:04:01.901Z,10.80
2022-10-15T02:06:48.082Z,10.80
2022-10-15T02:09:41.087Z,10.53
2022-10-15T02:12:37.988Z,9.80
2022-10-15T02:15:28.857Z,10.87
2022-10-15T02:18:18.232Z,10.77
2022-10-15T02:21:08.080Z,10.23
2022-10-15T02:23:55.926Z,9.73
2022-10-15T02:26:41.484Z,9.60
2022-10-15T02:29:30.284Z,11.80
2022-10-15T02:32:15.654Z,9.50
2022-10-15T02:34:59.518Z,10.73
2022-10-15T02:37:48.875Z,11.33
2022-10-15T02:40:35.061Z,9.63
2022-10-15T02:43:21.782Z,10.80
2022-10-15T02:46:06.378Z,10.20
2022-10-15T02:48:49.444Z,10.73
2022-10-15T02:51:33.570Z,11.40
2022-10-15T02:54:18.079Z,10.80
2022-10-15T02:57:01.371Z,11.40
2022-10-15T02:59:44.455Z,11.23
2022-10-15T03:02:27.538Z,11.47
2022-10-15T03:05:10.798Z,11.47
2022-10-15T03:07:54.012Z,11.17
2022-10-15T03:10:38.576Z,11.27
2022-10-15T03:13:21.598Z,11.23
2022-10-15T03:16:06.117Z,11.37
2022-10-15T03:18:49.181Z,10.70
2022-10-15T03:21:32.306Z,10.40
2022-10-15T03:24:15.324Z,12.10
2022-10-15T03:26:59.953Z,11.20
2022-10-15T03:29:43.164Z,11.83
2022-10-15T03:32:26.418Z,11.13
2022-10-15T03:35:10.036Z,23.73
2022-10-15T03:37:53.136Z,12.53
2022-10-15T03:40:36.271Z,13.93
2022-10-15T03:43:20.727Z,12.67
2022-10-15T03:46:04.414Z,10.93
2022-10-15T03:48:50.378Z,12.37
2022-10-15T03:51:33.486Z,11.07
2022-10-15T03:54:16.598Z,11.97
2022-10-15T03:56:59.789Z,12.10
2022-10-15T04:02:33.286Z,12.50
2022-10-15T04:05:16.604Z,12.20
2022-10-15T04:07:59.675Z,12.57
2022-10-15T04:10:42.738Z,11.37
2022-10-15T04:13:25.892Z,11.57
2022-10-15T04:16:10.512Z,12.67
2022-10-15T04:18:53.539Z,11.90
2022-10-15T04:21:36.667Z,12.73
2022-10-15T04:24:21.764Z,12.37
2022-10-15T04:27:05.198Z,29.40
2022-10-15T04:29:49.437Z,14.93
2022-10-15T04:32:33.864Z,12.83
2022-10-15T04:35:16.922Z,13.20
2022-10-15T04:38:00.109Z,12.63
2022-10-15T04:40:43.240Z,12.60
2022-10-15T04:43:26.370Z,13.67
2022-10-15T04:46:10.289Z,12.90
2022-10-15T04:48:57.818Z,14.17
2022-10-15T04:51:41.052Z,13.37
2022-10-15T04:54:24.139Z,14.73
2022-10-15T04:57:07.746Z,13.97
2022-10-15T04:59:53.922Z,13.50
2022-10-15T05:02:43.254Z,14.63
2022-10-15T05:05:27.678Z,13.47
2022-10-15T05:08:10.727Z,13.00
2022-10-15T05:10:53.774Z,14.20
2022-10-15T05:13:37.306Z,14.47
2022-10-15T05:16:22.382Z,14.77
2022-10-15T05:19:07.297Z,17.60
2022-10-15T05:21:51.779Z,13.53
2022-10-15T05:24:34.828Z,13.60
2022-10-15T05:27:17.854Z,14.17
2022-10-15T05:30:00.886Z,16.47
2022-10-15T05:32:43.955Z,17.67
2022-10-15T05:35:27.180Z,16.90
2022-10-15T05:38:11.640Z,15.03
2022-10-15T05:40:55.079Z,13.93
2022-10-15T05:43:40.482Z,13.57
2022-10-15T05:46:25.601Z,12.97
2022-10-15T05:49:09.066Z,13.60
2022-10-15T05:51:52.158Z,14.03
2022-10-15T05:54:36.736Z,14.73
2022-10-15T05:57:21.652Z,14.43
2022-10-15T06:00:05.878Z,12.83
2022-10-15T06:02:49.016Z,14.60
2022-10-15T06:05:33.202Z,13.70
2022-10-15T06:08:16.861Z,14.10
2022-10-15T06:11:09.445Z,14.97
2022-10-15T06:13:52.705Z,13.03
2022-10-15T06:16:35.740Z,12.90
2022-10-15T06:19:18.856Z,13.73
2022-10-15T06:22:02.005Z,14.80
2022-10-15T06:24:45.095Z,14.83
2022-10-15T06:27:30.828Z,16.93
2022-10-15T06:30:14.024Z,15.30
2022-10-15T06:32:57.503Z,14.93
2022-10-15T06:35:41.458Z,13.40
2022-10-15T06:38:26.956Z,11.87
2022-10-15T06:41:10.155Z,11.13
2022-10-15T06:43:54.806Z,11.77
2022-10-15T06:46:38.507Z,10.40
2022-10-15T06:49:23.836Z,10.63
2022-10-15T06:52:06.955Z,10.03
2022-10-15T06:54:50.104Z,9.50
2022-10-15T06:57:33.186Z,13.00
2022-10-15T07:00:18.190Z,14.30
2022-10-15T07:03:06.163Z,8.77
2022-10-15T07:05:49.347Z,9.53
2022-10-15T07:08:32.436Z,9.13
2022-10-15T07:11:21.360Z,8.30
2022-10-15T07:14:04.578Z,8.40
2022-10-15T07:16:49.150Z,9.17
2022-10-15T07:19:32.400Z,8.53
2022-10-15T07:22:15.473Z,8.20
2022-10-15T07:24:58.603Z,9.53
2022-10-15T07:27:42.337Z,7.93
2022-10-15T07:30:28.537Z,8.00
2022-10-15T07:33:13.312Z,7.50
2022-10-15T07:35:56.399Z,8.47
2022-10-15T07:38:40.220Z,7.80
2022-10-15T07:41:23.473Z,8.43
2022-10-15T07:44:07.139Z,8.10
2022-10-15T07:46:50.516Z,8.63
2022-10-15T07:49:35.230Z,8.57
2022-10-15T07:52:18.454Z,7.27
2022-10-15T07:55:01.567Z,8.30
2022-10-15T07:57:44.917Z,7.87
2022-10-15T08:00:28.439Z,9.67
2022-10-15T08:03:11.687Z,7.10
2022-10-15T08:05:56.186Z,7.80
2022-10-15T08:08:39.744Z,7.43
2022-10-15T08:11:22.723Z,8.63
2022-10-15T08:14:05.856Z,8.17
2022-10-15T08:16:49.005Z,8.90
2022-10-15T08:19:32.377Z,7.30
2022-10-15T08:22:16.763Z,6.93
2022-10-15T08:24:59.852Z,7.00
2022-10-15T08:27:42.844Z,6.83
2022-10-15T08:30:26.304Z,8.40
2022-10-15T08:33:09.336Z,11.63
2022-10-15T08:35:52.411Z,10.77
2022-10-15T08:38:36.980Z,7.07
2022-10-15T08:41:30.514Z,7.20
2022-10-15T08:44:22.755Z,8.37
2022-10-15T08:47:10.530Z,7.60
2022-10-15T08:49:56.624Z,7.00
2022-10-15T08:52:45.977Z,7.97
2022-10-15T08:55:36.659Z,7.07
2022-10-15T08:58:24.991Z,8.47
2022-10-15T09:01:15.424Z,6.40
2022-10-15T09:04:09.135Z,6.97
2022-10-15T09:07:00.563Z,5.87
2022-10-15T09:09:49.360Z,6.20
2022-10-15T09:12:43.411Z,7.13
2022-10-15T09:15:28.497Z,6.80
2022-10-15T09:18:20.345Z,6.37
2022-10-15T09:21:05.695Z,6.70
2022-10-15T09:23:48.862Z,6.87
2022-10-15T09:26:43.677Z,8.77
2022-10-15T09:29:34.469Z,11.27
2022-10-15T09:32:24.087Z,13.00
2022-10-15T09:35:17.663Z,7.83
2022-10-15T09:38:13.431Z,9.80
2022-10-15T09:41:16.503Z,7.90
2022-10-15T09:44:04.526Z,7.50
2022-10-15T09:46:52.429Z,7.23
2022-10-15T09:49:36.553Z,6.90
2022-10-15T09:52:26.929Z,7.40
2022-10-15T09:55:22.401Z,7.50
2022-10-15T09:58:09.893Z,6.97
2022-10-15T10:00:59.356Z,10.17
2022-10-15T10:03:43.853Z,9.20
2022-10-15T10:06:26.955Z,8.80
2022-10-15T10:09:18.577Z,7.30
2022-10-15T10:12:05.855Z,8.10
2022-10-15T10:14:57.979Z,8.37
2022-10-15T10:17:53.147Z,8.00
2022-10-15T10:20:37.645Z,8.07
2022-10-15T10:23:24.463Z,8.20
2022-10-15T10:26:10.320Z,7.93
2022-10-15T10:28:56.901Z,8.43
2022-10-15T10:31:51.792Z,7.20
2022-10-15T10:34:36.421Z,7.70
2022-10-15T10:37:21.651Z,8.40
2022-10-15T10:40:06.132Z,6.77
2022-10-15T10:42:49.533Z,7.20
2022-10-15T10:45:34.943Z,7.17
2022-10-15T10:48:24.185Z,7.50
2022-10-15T10:51:16.627Z,7.90
2022-10-15T10:54:06.619Z,7.20
2022-10-15T10:56:51.249Z,6.87
2022-10-15T10:59:38.393Z,6.33
2022-10-15T11:02:21.712Z,6.50
2022-10-15T11:05:04.888Z,6.40
2022-10-15T11:07:54.307Z,7.13
2022-10-15T11:10:45.332Z,6.70
2022-10-15T11:13:41.936Z,6.47
2022-10-15T11:16:36.383Z,8.70
2022-10-15T11:19:54.640Z,8.00
2022-10-15T11:22:45.197Z,6.83
2022-10-15T11:25:36.229Z,7.10
2022-10-15T11:28:35.857Z,7.27
2022-10-15T11:31:27.705Z,6.70
2022-10-15T11:34:27.099Z,7.17
2022-10-15T11:37:25.757Z,8.10
2022-10-15T11:40:18.564Z,7.40
2022-10-15T11:43:05.176Z,8.80
2022-10-15T11:45:59.661Z,7.77
2022-10-15T11:48:57.438Z,9.60
2022-10-15T11:51:56.263Z,7.73
2022-10-15T11:54:43.452Z,8.57
2022-10-15T11:57:28.529Z,8.83
2022-10-15T12:00:20.540Z,8.60
2022-10-15T12:03:14.333Z,8.00
2022-10-15T12:06:02.347Z,8.10
2022-10-15T12:08:47.745Z,9.10
2022-10-15T12:11:44.015Z,8.27
2022-10-15T12:14:35.527Z,11.43
2022-10-15T12:17:24.636Z,8.63
2022-10-15T12:20:15.010Z,8.27
2022-10-15T12:23:03.123Z,7.30
2022-10-15T12:25:50.089Z,7.93
2022-10-15T12:28:33.660Z,9.23
2022-10-15T12:31:20.333Z,9.20
2022-10-15T12:34:05.125Z,8.27
2022-10-15T12:37:05.433Z,8.07
2022-10-15T12:39:55.454Z,9.57
2022-10-15T12:42:41.310Z,8.50
2022-10-15T12:45:26.639Z,7.90
2022-10-15T12:48:34.546Z,10.73
2022-10-15T12:51:39.443Z,8.67
2022-10-15T12:54:39.167Z,7.50
2022-10-15T12:57:58.733Z,8.00
2022-10-15T13:00:44.177Z,8.60
2022-10-15T13:03:35.613Z,8.00
2022-10-15T13:06:33.617Z,7.87
2022-10-15T13:09:28.639Z,7.77
2022-10-15T13:12:25.147Z,8.23
2022-10-15T13:15:15.767Z,9.27
2022-10-15T13:18:01.533Z,23.80
2022-10-15T13:20:47.691Z,8.17
2022-10-15T13:23:32.444Z,7.60
2022-10-15T13:26:20.573Z,7.73
2022-10-15T13:29:05.102Z,8.73
2022-10-15T13:31:48.868Z,8.53
2022-10-15T13:34:37.269Z,7.50
2022-10-15T13:37:24.376Z,10.53
2022-10-15T13:40:09.183Z,9.30
2022-10-15T13:43:02.457Z,8.10
2022-10-15T13:45:50.251Z,8.10
2022-10-15T13:48:34.790Z,7.30
2022-10-15T13:51:17.906Z,7.40
2022-10-15T13:54:02.772Z,8.47
2022-10-15T13:56:53.371Z,8.03
2022-10-15T13:59:36.619Z,8.30
2022-10-15T14:02:21.306Z,8.13
2022-10-15T14:05:16.773Z,7.50
2022-10-15T14:07:59.919Z,7.33
2022-10-15T14:10:43.062Z,8.57
2022-10-15T14:13:27.392Z,7.00
2022-10-15T14:16:16.748Z,7.73
2022-10-15T14:19:12.559Z,7.40
2022-10-15T14:21:55.663Z,7.33
2022-10-15T14:24:40.482Z,8.17
2022-10-15T14:27:26.577Z,7.53
2022-10-15T14:30:16.612Z,7.80
2022-10-15T14:32:59.755Z,7.70
2022-10-15T14:35:44.251Z,7.57
2022-10-15T14:38:27.421Z,7.50
2022-10-15T14:41:37.507Z,7.47
2022-10-15T14:44:20.737Z,7.50
2022-10-15T14:47:04.727Z,8.77
2022-10-15T14:49:48.623Z,7.20
2022-10-15T14:52:34.266Z,6.80
2022-10-15T14:55:33.394Z,7.47
2022-10-15T14:58:20.107Z,7.10
2022-10-15T15:01:04.926Z,6.97
2022-10-15T15:03:50.731Z,9.10
2022-10-15T15:06:34.571Z,7.50
2022-10-15T15:09:19.055Z,7.27
2022-10-15T15:12:02.587Z,7.63
2022-10-15T15:14:46.147Z,7.80
2022-10-15T15:17:31.331Z,11.77
2022-10-15T15:20:14.618Z,7.40
2022-10-15T15:22:57.887Z,8.27
2022-10-15T15:25:42.477Z,9.23
2022-10-15T15:28:27.958Z,11.27
2022-10-15T15:31:17.417Z,7.80
2022-10-15T15:34:00.482Z,8.47
2022-10-15T15:36:43.614Z,7.97
2022-10-15T15:39:26.701Z,7.50
2022-10-15T15:42:13.978Z,10.70
2022-10-15T15:44:57.020Z,8.80
2022-10-15T15:47:40.047Z,8.27
2022-10-15T15:50:23.533Z,9.40
2022-10-15T15:53:06.643Z,7.67
2022-10-15T15:55:49.677Z,7.87
2022-10-15T15:58:34.153Z,8.40
2022-10-15T16:01:17.557Z,7.17
2022-10-15T16:04:00.634Z,8.57
2022-10-15T16:06:44.177Z,7.20
2022-10-15T16:09:28.330Z,7.63
2022-10-15T16:12:11.543Z,8.43
2022-10-15T16:14:56.130Z,8.50
2022-10-15T16:17:39.294Z,8.70
2022-10-15T16:20:23.493Z,8.60
2022-10-15T16:23:06.936Z,11.03
2022-10-15T16:25:50.045Z,8.60
2022-10-15T16:28:33.363Z,9.20
2022-10-15T16:31:20.256Z,8.47
2022-10-15T16:34:03.970Z,9.30
2022-10-15T16:36:47.339Z,9.40
2022-10-15T16:39:33.916Z,9.17
2022-10-15T16:45:00.913Z,8.27
2022-10-15T16:47:45.452Z,8.50
2022-10-15T16:50:28.684Z,8.87
2022-10-15T16:53:11.940Z,9.40
2022-10-15T16:56:06.506Z,9.20
2022-10-15T16:58:50.222Z,19.10
2022-10-15T17:01:33.293Z,10.97
2022-10-15T17:04:17.767Z,10.50
2022-10-15T17:07:03.445Z,10.33
2022-10-15T17:12:36.590Z,9.80
2022-10-15T17:15:19.930Z,10.60
2022-10-15T17:18:03.119Z,10.07
2022-10-15T17:20:48.826Z,10.97
2022-10-15T17:23:31.888Z,12.03
2022-10-15T17:26:17.223Z,10.37
2022-10-15T17:29:00.899Z,10.80
2022-10-15T17:31:44.137Z,11.40
2022-10-15T17:34:28.070Z,11.43
2022-10-15T17:37:14.279Z,10.60
2022-10-15T17:39:58.346Z,11.00
2022-10-15T17:42:43.357Z,10.67
2022-10-15T17:45:26.494Z,10.73
2022-10-15T17:48:09.666Z,12.63
2022-10-15T17:50:52.734Z,10.80
2022-10-15T17:53:37.284Z,12.53
2022-10-15T17:56:22.710Z,17.33
2022-10-15T17:59:07.178Z,16.00
2022-10-15T18:01:58.201Z,17.97
2022-10-15T18:04:42.355Z,19.97
2022-10-15T18:07:25.914Z,17.70
2022-10-15T18:10:12.667Z,17.93
2022-10-15T18:12:57.699Z,20.10
2022-10-15T18:15:45.959Z,20.33
2022-10-15T18:18:29.507Z,19.20
2022-10-15T18:21:15.364Z,22.37
2022-10-15T18:24:01.153Z,23.53
2022-10-15T18:26:45.835Z,22.87
2022-10-15T18:29:28.988Z,21.63
2022-10-15T18:32:12.608Z,21.23
2022-10-15T18:34:55.634Z,18.33
2022-10-15T18:37:38.714Z,16.53
2022-10-15T18:40:21.792Z,14.97
2022-10-15T18:43:06.450Z,14.07
2022-10-15T18:45:49.662Z,15.47
2022-10-15T18:48:32.973Z,15.10
2022-10-15T18:51:16.762Z,13.93
2022-10-15T18:54:00.507Z,12.47
2022-10-15T18:56:43.621Z,14.00
2022-10-15T18:59:28.108Z,15.23
2022-10-15T19:02:11.515Z,14.73
2022-10-15T19:04:54.718Z,15.50
2022-10-15T19:07:37.962Z,15.77
2022-10-15T19:10:21.235Z,14.17
2022-10-15T19:13:04.382Z,15.47
2022-10-15T19:15:48.772Z,15.07
2022-10-15T19:18:35.986Z,14.87
2022-10-15T19:21:20.135Z,14.83
2022-10-15T19:24:03.124Z,12.83
2022-10-15T19:26:46.690Z,13.50
2022-10-15T19:29:31.602Z,13.10
2022-10-15T19:32:19.003Z,12.20
2022-10-15T19:35:02.107Z,11.33
2022-10-15T19:37:45.220Z,13.07
2022-10-15T19:40:28.345Z,13.17
2022-10-15T19:43:11.613Z,13.17
2022-10-15T19:45:54.666Z,14.10
2022-10-15T19:48:39.518Z,14.13
2022-10-15T19:51:22.620Z,14.03
2022-10-15T19:54:06.501Z,13.87
2022-10-15T19:56:49.900Z,13.97
2022-10-15T19:59:32.974Z,13.37
2022-10-15T20:02:16.006Z,14.00
2022-10-15T20:05:00.474Z,12.93
2022-10-15T20:07:43.863Z,11.20
2022-10-15T20:10:27.204Z,8.17
2022-10-15T20:13:10.480Z,9.43
2022-10-15T20:15:55.205Z,9.03
2022-10-15T20:18:38.394Z,10.10
2022-10-15T20:21:22.886Z,10.17
2022-10-15T20:24:06.191Z,9.57
2022-10-15T20:26:51.062Z,9.53
2022-10-15T20:29:34.162Z,10.77
2022-10-15T20:32:30.478Z,9.30
2022-10-15T20:35:17.992Z,9.80
2022-10-15T20:38:02.978Z,8.77
2022-10-15T20:40:46.048Z,9.93
2022-10-15T20:43:29.043Z,10.33
2022-10-15T20:46:15.202Z,9.33
2022-10-15T20:49:03.281Z,10.10
2022-10-15T20:51:50.378Z,8.80
2022-10-15T20:54:35.592Z,10.30
2022-10-15T20:57:18.728Z,9.90
2022-10-15T21:00:01.798Z,10.03
2022-10-15T21:02:44.884Z,9.10
2022-10-15T21:05:28.030Z,9.87
2022-10-15T21:08:13.486Z,11.33
2022-10-15T21:11:04.853Z,10.13
2022-10-15T21:13:47.877Z,11.10
2022-10-15T21:19:18.975Z,11.93
2022-10-15T21:22:01.974Z,11.73
2022-10-15T21:24:45.061Z,11.77
2022-10-15T21:27:29.449Z,12.27
2022-10-15T21:30:12.947Z,11.53
2022-10-15T21:32:55.944Z,11.53
2022-10-15T21:35:39.253Z,12.10
2022-10-15T21:38:22.546Z,11.17
2022-10-15T21:41:05.661Z,11.23
2022-10-15T21:46:40.985Z,11.57
2022-10-15T21:49:24.042Z,11.10
2022-10-15T21:52:07.100Z,12.20
2022-10-15T21:54:50.133Z,11.10
2022-10-15T21:57:33.863Z,13.07
2022-10-15T22:00:18.753Z,11.57
2022-10-15T22:03:01.775Z,10.83
2022-10-15T22:05:44.842Z,11.63
2022-10-15T22:08:29.104Z,12.23
2022-10-15T22:11:15.069Z,12.27
2022-10-15T22:13:59.815Z,10.87
2022-10-15T22:16:44.478Z,11.40
2022-10-15T22:19:27.762Z,12.27
2022-10-15T22:22:10.753Z,10.57
2022-10-15T22:24:56.301Z,11.27
2022-10-15T22:27:39.665Z,11.93
2022-10-15T22:30:22.759Z,10.70
2022-10-15T22:33:07.238Z,11.03
2022-10-15T22:35:50.224Z,10.83
2022-10-15T22:38:33.440Z,11.43
2022-10-15T22:41:17.089Z,11.10
2022-10-15T22:44:00.863Z,11.73
2022-10-15T22:46:46.252Z,10.73
2022-10-15T22:49:30.749Z,11.10
2022-10-15T22:52:13.784Z,11.07
2022-10-15T22:54:56.834Z,11.77
2022-10-15T22:57:39.942Z,11.60
2022-10-15T23:00:22.983Z,11.53
2022-10-15T23:03:06.059Z,11.43
2022-10-15T23:05:54.199Z,11.57
2022-10-15T23:08:37.699Z,12.33
2022-10-15T23:11:22.430Z,13.30
2022-10-15T23:14:08.231Z,11.90
2022-10-15T23:16:51.179Z,11.53
2022-10-15T23:19:34.241Z,11.17
2022-10-15T23:22:18.742Z,12.77
2022-10-15T23:25:02.926Z,12.00
2022-10-15T23:27:46.418Z,11.60
2022-10-15T23:30:29.479Z,12.60
2022-10-15T23:33:12.513Z,14.03
2022-10-15T23:36:03.454Z,11.70
2022-10-15T23:38:50.873Z,13.77
2022-10-15T23:41:34.239Z,13.23
2022-10-15T23:44:17.295Z,12.80
2022-10-15T23:47:00.315Z,13.03
2022-10-15T23:49:43.332Z,13.57
2022-10-15T23:52:26.459Z,12.77
2022-10-15T23:55:11.065Z,12.40
2022-10-15T23:57:54.041Z,12.17
